Terminal Aerodrome Forecast
Issued by NWS Grand Rapids, MI

Home | Current Version | Previous Version | Text Only | Print | Product List | Glossary On
Versions: 1 2 3 4 5 6 7 8 9 10 11 12 13 14 15 16
912
FTUS43 KGRR 101136
TAFGRR
TAF
KGRR 101136Z 1012/1112 31012G22KT 6SM -SN OVC035
      TEMPO 1012/1016 5SM -SHSN BR OVC030
     FM110200 31009KT P6SM -SN BKN035=

USA.gov is the U.S. government's official web portal to all federal, state and local government web resources and services.